Time;durP1;ratioP1;P1;durP2;ratioP2;P2;SDS_P1;SDS_P2;PMS_P1;PMS_P2;Temp;Humidity;BMP_temperature;BMP_pressure;BME280_temperature;BME280_humidity;BME280_pressure;Samples;Min_cycle;Max_cycle;Signal;HPM_P1;HPM_P2
2021/10/06 00:01:57;;;;;;;1.08;0.80;;;12.50;99.90;;;;;;4969508;28;20224;-69
2021/10/06 00:04:22;;;;;;;0.55;0.50;;;12.40;99.90;;;;;;4969388;28;20327;-66
2021/10/06 00:06:48;;;;;;;1.25;1.00;;;12.40;99.90;;;;;;4971065;28;20522;-68
2021/10/06 00:09:14;;;;;;;1.23;0.75;;;12.30;99.90;;;;;;4971831;28;20525;-69
2021/10/06 00:11:40;;;;;;;1.77;0.70;;;12.30;99.90;;;;;;4964361;28;20246;-69
2021/10/06 00:14:07;;;;;;;2.65;0.82;;;12.30;99.90;;;;;;4964606;28;20531;-67
2021/10/06 00:16:33;;;;;;;1.17;0.80;;;12.20;99.90;;;;;;4965573;28;21203;-70
2021/10/06 00:18:59;;;;;;;1.75;0.80;;;12.20;99.90;;;;;;4967200;28;20181;-69
2021/10/06 00:21:25;;;;;;;1.98;0.90;;;12.20;99.90;;;;;;4968219;28;20201;-67
2021/10/06 00:23:50;;;;;;;0.75;0.70;;;12.40;99.90;;;;;;4966656;28;20181;-68
2021/10/06 00:26:16;;;;;;;2.08;0.85;;;12.40;99.90;;;;;;4973876;28;20648;-68
2021/10/06 00:28:42;;;;;;;1.15;0.77;;;12.30;99.90;;;;;;4968043;28;20181;-70
2021/10/06 00:31:07;;;;;;;0.93;0.80;;;12.30;99.90;;;;;;4967752;28;20259;-69
2021/10/06 00:33:33;;;;;;;0.60;0.60;;;12.20;99.90;;;;;;4967227;28;20247;-69
2021/10/06 00:35:59;;;;;;;1.42;0.70;;;12.20;99.90;;;;;;4968218;28;20209;-69
2021/10/06 00:38:26;;;;;;;4.20;0.68;;;12.10;99.90;;;;;;4967861;28;20226;-69
2021/10/06 00:40:52;;;;;;;3.47;1.23;;;12.20;99.90;;;;;;4970725;28;20622;-69
2021/10/06 00:43:18;;;;;;;1.10;0.68;;;12.10;99.90;;;;;;4968142;28;20236;-66
2021/10/06 00:45:44;;;;;;;1.30;0.65;;;12.00;99.90;;;;;;4967903;28;20535;-71
2021/10/06 00:48:10;;;;;;;2.63;0.60;;;12.00;99.90;;;;;;4967498;28;20211;-67
2021/10/06 00:50:36;;;;;;;1.73;1.05;;;11.90;99.90;;;;;;4973025;28;20189;-67
2021/10/06 00:53:03;;;;;;;2.25;0.65;;;11.90;99.90;;;;;;4970236;28;20188;-66
2021/10/06 00:55:29;;;;;;;1.42;0.63;;;11.80;99.90;;;;;;4967427;28;20207;-68
2021/10/06 00:57:54;;;;;;;3.33;0.80;;;11.70;99.90;;;;;;4967980;28;20601;-69
2021/10/06 01:00:20;;;;;;;1.27;0.70;;;11.60;99.90;;;;;;4968259;28;20188;-66
2021/10/06 01:02:46;;;;;;;0.60;0.60;;;11.40;99.90;;;;;;4971878;28;20730;-68
2021/10/06 01:05:11;;;;;;;1.25;0.57;;;11.30;99.90;;;;;;4969234;28;20537;-67
2021/10/06 01:07:38;;;;;;;0.57;0.52;;;11.30;99.90;;;;;;4967760;28;20192;-70
2021/10/06 01:10:05;;;;;;;1.27;0.60;;;11.20;99.90;;;;;;4974189;28;20557;-70
2021/10/06 01:12:33;;;;;;;1.83;0.70;;;11.20;99.90;;;;;;4974260;28;20204;-66
2021/10/06 01:15:00;;;;;;;2.83;0.80;;;11.00;99.90;;;;;;4974837;28;20212;-68
2021/10/06 01:17:25;;;;;;;1.58;0.60;;;11.00;99.90;;;;;;4967214;28;20264;-67
2021/10/06 01:19:51;;;;;;;1.33;0.80;;;10.90;99.90;;;;;;4966901;28;20442;-69
2021/10/06 01:22:17;;;;;;;1.67;0.77;;;10.70;99.90;;;;;;4966633;28;20205;-69
2021/10/06 01:24:43;;;;;;;0.80;0.77;;;10.70;99.90;;;;;;4968058;28;20506;-69
2021/10/06 01:27:10;;;;;;;2.22;0.75;;;10.60;99.90;;;;;;4971637;28;20730;-69
2021/10/06 01:29:36;;;;;;;0.90;0.80;;;10.70;99.90;;;;;;4966866;28;20268;-67
2021/10/06 01:32:11;;;;;;;1.95;0.70;;;10.60;99.90;;;;;;4965810;28;20216;-68
2021/10/06 01:34:36;;;;;;;3.20;0.70;;;10.50;99.90;;;;;;4966921;28;20249;-68
2021/10/06 01:37:02;;;;;;;1.13;0.50;;;10.40;99.90;;;;;;4966810;28;20468;-71
2021/10/06 01:39:27;;;;;;;1.93;0.70;;;10.30;99.90;;;;;;4965493;28;20185;-68
2021/10/06 01:41:53;;;;;;;2.00;0.60;;;10.40;99.90;;;;;;4966002;28;20209;-69
2021/10/06 01:44:19;;;;;;;2.83;0.70;;;10.50;99.90;;;;;;4969171;28;20181;-66
2021/10/06 01:46:46;;;;;;;1.20;0.70;;;10.50;99.90;;;;;;4972303;28;20219;-71
2021/10/06 01:49:12;;;;;;;0.80;0.73;;;10.60;99.90;;;;;;4968517;28;20181;-68
2021/10/06 01:51:37;;;;;;;0.77;0.60;;;10.60;99.90;;;;;;4966112;28;20200;-69
2021/10/06 01:54:05;;;;;;;1.70;0.80;;;10.50;99.90;;;;;;4972944;28;20521;-69
2021/10/06 01:56:32;;;;;;;1.03;0.60;;;10.40;99.90;;;;;;4972548;28;20229;-66
2021/10/06 01:58:58;;;;;;;1.43;0.60;;;10.40;99.90;;;;;;4967167;28;20215;-68
2021/10/06 02:01:24;;;;;;;1.80;0.90;;;10.30;99.90;;;;;;4968408;28;20221;-68
2021/10/06 02:03:49;;;;;;;0.80;0.67;;;10.20;99.90;;;;;;4966525;28;20553;-68
2021/10/06 02:06:15;;;;;;;0.80;0.67;;;10.20;99.90;;;;;;4966470;28;20189;-68
2021/10/06 02:08:40;;;;;;;1.03;0.70;;;10.00;99.90;;;;;;4966580;28;20653;-66
2021/10/06 02:11:06;;;;;;;2.00;0.53;;;10.00;99.90;;;;;;4974320;28;20290;-65
2021/10/06 02:13:32;;;;;;;3.63;0.80;;;9.90;99.90;;;;;;4965887;28;20185;-67
2021/10/06 02:15:58;;;;;;;0.70;0.70;;;9.90;99.90;;;;;;4965977;28;20210;-68
2021/10/06 02:18:24;;;;;;;1.70;0.63;;;9.80;99.90;;;;;;4971241;28;20532;-66
2021/10/06 02:20:50;;;;;;;2.27;0.73;;;9.70;99.90;;;;;;4965754;28;20281;-70
2021/10/06 02:23:15;;;;;;;1.83;0.70;;;9.80;99.90;;;;;;4971339;28;20184;-70
2021/10/06 02:25:41;;;;;;;1.73;0.67;;;9.80;99.90;;;;;;4965869;28;20213;-67
2021/10/06 02:28:07;;;;;;;2.20;0.87;;;9.70;99.90;;;;;;4966082;28;20278;-68
2021/10/06 02:30:34;;;;;;;1.67;0.80;;;9.70;99.90;;;;;;4965689;28;20280;-66
2021/10/06 02:33:00;;;;;;;1.63;0.80;;;9.70;99.90;;;;;;4965398;28;20176;-69
2021/10/06 02:35:26;;;;;;;1.43;0.60;;;9.60;99.90;;;;;;4967376;28;20212;-69
2021/10/06 02:37:51;;;;;;;1.93;0.70;;;9.60;99.90;;;;;;4976458;28;20180;-69
2021/10/06 02:40:17;;;;;;;1.77;0.83;;;9.60;99.90;;;;;;4966637;28;20212;-70
2021/10/06 02:42:48;;;;;;;2.23;0.70;;;9.60;99.90;;;;;;4965398;28;20251;-68
2021/10/06 02:45:15;;;;;;;3.77;0.97;;;9.60;99.90;;;;;;4968002;28;20200;-68
2021/10/06 02:47:42;;;;;;;1.90;0.60;;;9.60;99.90;;;;;;4965728;28;20185;-67
2021/10/06 02:50:11;;;;;;;2.37;0.80;;;9.60;99.90;;;;;;4965458;28;20276;-68
2021/10/06 02:52:37;;;;;;;2.23;0.70;;;9.60;99.90;;;;;;4969398;28;20215;-66
2021/10/06 02:55:05;;;;;;;0.77;0.70;;;9.70;99.90;;;;;;4965334;28;20208;-71
2021/10/06 02:57:31;;;;;;;0.63;0.63;;;9.80;99.90;;;;;;4965998;28;20173;-66
2021/10/06 02:59:56;;;;;;;2.40;0.80;;;10.00;99.90;;;;;;4963950;28;20195;-70
2021/10/06 03:02:22;;;;;;;1.70;0.90;;;10.20;99.90;;;;;;4965082;28;20196;-68
2021/10/06 03:04:47;;;;;;;2.13;0.67;;;10.50;99.90;;;;;;4965385;28;20177;-68
2021/10/06 03:07:14;;;;;;;1.10;0.70;;;10.70;99.90;;;;;;4972265;28;20181;-66
2021/10/06 03:09:40;;;;;;;1.73;0.60;;;10.70;99.90;;;;;;4965010;28;20243;-71
2021/10/06 03:12:05;;;;;;;1.67;0.60;;;10.70;99.90;;;;;;4970333;28;20553;-70
2021/10/06 03:14:31;;;;;;;2.50;0.70;;;10.80;99.90;;;;;;4972092;28;20184;-68
2021/10/06 03:16:57;;;;;;;1.17;0.80;;;11.00;99.90;;;;;;4965781;28;20224;-68
2021/10/06 03:19:22;;;;;;;1.33;0.43;;;11.00;99.90;;;;;;4965369;28;21078;-68
2021/10/06 03:21:48;;;;;;;0.90;0.80;;;11.10;99.90;;;;;;4964644;28;20556;-67
2021/10/06 03:24:13;;;;;;;1.27;0.70;;;11.00;99.90;;;;;;4966723;28;20181;-67
2021/10/06 03:26:39;;;;;;;1.53;0.60;;;11.20;99.90;;;;;;4970317;28;20187;-67
2021/10/06 03:29:04;;;;;;;0.80;0.80;;;11.20;99.90;;;;;;4968013;28;20185;-68
2021/10/06 03:31:30;;;;;;;0.50;0.50;;;11.20;99.90;;;;;;4971706;28;20783;-67
2021/10/06 03:33:58;;;;;;;1.23;0.60;;;11.20;99.90;;;;;;4965189;28;20637;-68
2021/10/06 03:36:24;;;;;;;1.77;0.63;;;11.10;99.90;;;;;;4965752;28;20918;-67
2021/10/06 03:38:49;;;;;;;1.40;0.70;;;11.10;99.90;;;;;;4971707;28;20177;-66
2021/10/06 03:41:15;;;;;;;1.00;0.70;;;11.10;99.90;;;;;;4965408;28;20919;-68
2021/10/06 03:43:40;;;;;;;1.10;0.50;;;11.20;99.90;;;;;;4964752;28;20184;-68
2021/10/06 03:46:06;;;;;;;0.93;0.75;;;11.20;99.90;;;;;;4966144;28;20241;-70
2021/10/06 03:48:32;;;;;;;1.23;0.60;;;11.30;99.90;;;;;;4965393;28;20529;-68
2021/10/06 03:50:57;;;;;;;2.75;0.60;;;11.40;99.90;;;;;;4964628;28;20251;-67
2021/10/06 03:53:23;;;;;;;1.38;0.60;;;11.40;99.90;;;;;;4964722;28;20177;-67
2021/10/06 03:55:48;;;;;;;1.75;0.80;;;11.30;99.90;;;;;;4968943;28;20672;-67
2021/10/06 03:58:16;;;;;;;1.20;0.80;;;11.30;99.90;;;;;;4975492;28;20199;-68
2021/10/06 04:00:42;;;;;;;2.05;0.63;;;11.20;99.90;;;;;;4968311;28;20648;-68
2021/10/06 04:03:14;;;;;;;1.63;0.75;;;11.10;99.90;;;;;;4969946;28;20351;-68
2021/10/06 04:05:40;;;;;;;2.00;0.93;;;11.00;99.90;;;;;;4970990;28;21071;-69
2021/10/06 04:08:06;;;;;;;1.45;0.80;;;11.00;99.90;;;;;;4970437;28;20180;-67
2021/10/06 04:10:33;;;;;;;1.20;0.80;;;10.90;99.90;;;;;;4968234;28;20200;-69
2021/10/06 04:12:58;;;;;;;0.67;0.60;;;10.80;99.90;;;;;;4970043;28;20185;-67
2021/10/06 04:15:24;;;;;;;0.60;0.60;;;10.70;99.90;;;;;;4969667;28;20554;-67
2021/10/06 04:17:50;;;;;;;0.82;0.70;;;10.60;99.90;;;;;;4969598;28;20173;-68
2021/10/06 04:20:15;;;;;;;1.17;0.70;;;10.50;99.90;;;;;;4967583;28;20641;-68
2021/10/06 04:22:41;;;;;;;1.17;0.93;;;10.60;99.90;;;;;;4970777;28;20208;-66
2021/10/06 04:25:07;;;;;;;1.83;0.80;;;10.60;99.90;;;;;;4970695;28;20618;-68
2021/10/06 04:27:33;;;;;;;1.17;0.67;;;10.60;99.90;;;;;;4968491;28;20185;-67
2021/10/06 04:29:59;;;;;;;1.85;0.80;;;10.70;99.90;;;;;;4974837;28;20383;-66
2021/10/06 04:32:24;;;;;;;1.05;0.70;;;10.70;99.90;;;;;;4967886;28;20228;-68
2021/10/06 04:34:50;;;;;;;1.92;0.80;;;10.70;99.90;;;;;;4970726;28;20189;-68
2021/10/06 04:37:16;;;;;;;1.13;0.70;;;10.70;99.90;;;;;;4968359;28;20703;-67
2021/10/06 04:39:41;;;;;;;0.70;0.60;;;10.80;99.90;;;;;;4967466;28;20176;-67
2021/10/06 04:42:07;;;;;;;1.73;0.60;;;11.00;99.90;;;;;;4967774;28;20615;-68
2021/10/06 04:44:33;;;;;;;1.45;0.65;;;11.10;99.90;;;;;;4971560;28;20179;-68
2021/10/06 04:46:58;;;;;;;0.73;0.52;;;11.00;99.90;;;;;;4967918;28;20197;-68
2021/10/06 04:49:24;;;;;;;0.95;0.63;;;11.00;99.90;;;;;;4973644;28;20181;-68
2021/10/06 04:51:50;;;;;;;2.50;0.70;;;11.00;99.90;;;;;;4969908;28;20284;-66
2021/10/06 04:54:15;;;;;;;2.10;0.75;;;11.10;99.90;;;;;;4968049;28;20197;-69
2021/10/06 04:56:41;;;;;;;0.82;0.70;;;11.10;99.90;;;;;;4967527;28;20216;-69
2021/10/06 04:59:07;;;;;;;1.02;0.85;;;11.00;99.90;;;;;;4970261;28;20230;-69
2021/10/06 05:01:32;;;;;;;0.98;0.73;;;11.00;99.90;;;;;;4968834;28;20250;-69
2021/10/06 05:03:58;;;;;;;1.38;0.82;;;10.90;99.90;;;;;;4969640;28;20275;-67
2021/10/06 05:06:24;;;;;;;1.17;0.77;;;10.90;99.90;;;;;;4966533;28;20181;-65
2021/10/06 05:08:49;;;;;;;1.48;0.75;;;10.90;99.90;;;;;;4967770;28;20259;-70
2021/10/06 05:11:15;;;;;;;1.48;0.50;;;10.80;99.90;;;;;;4967339;28;20203;-69
2021/10/06 05:13:40;;;;;;;2.63;1.20;;;10.80;99.90;;;;;;4972876;28;20181;-69
2021/10/06 05:16:06;;;;;;;0.93;0.60;;;10.80;99.90;;;;;;4967104;28;20208;-70
2021/10/06 05:18:32;;;;;;;1.20;0.80;;;10.90;99.90;;;;;;4966201;28;21043;-68
2021/10/06 05:20:57;;;;;;;2.25;1.00;;;10.80;99.90;;;;;;4966608;28;20239;-68
2021/10/06 05:23:23;;;;;;;1.02;0.65;;;10.70;99.90;;;;;;4973767;28;20185;-69
2021/10/06 05:25:48;;;;;;;2.00;0.90;;;10.60;99.90;;;;;;4967050;28;20255;-69
2021/10/06 05:28:14;;;;;;;1.00;0.57;;;10.50;99.90;;;;;;4967444;28;20607;-65
2021/10/06 05:30:40;;;;;;;1.42;0.73;;;10.40;99.90;;;;;;4968937;28;20185;-68
2021/10/06 05:33:05;;;;;;;2.03;0.70;;;10.30;99.90;;;;;;4969130;28;20266;-70
2021/10/06 05:35:31;;;;;;;0.70;0.60;;;10.40;99.90;;;;;;4966756;28;20236;-70
2021/10/06 05:37:57;;;;;;;1.90;0.67;;;10.40;99.90;;;;;;4969509;28;20268;-67
2021/10/06 05:40:22;;;;;;;1.43;0.80;;;10.30;99.90;;;;;;4966612;28;20185;-69
2021/10/06 05:42:48;;;;;;;1.00;0.90;;;10.20;99.90;;;;;;4966181;28;20239;-67
2021/10/06 05:45:14;;;;;;;3.17;0.97;;;10.20;99.90;;;;;;4968437;28;20192;-68
2021/10/06 05:47:39;;;;;;;0.60;0.60;;;10.10;99.90;;;;;;4976223;28;20177;-69
2021/10/06 05:50:06;;;;;;;1.37;0.90;;;10.10;99.90;;;;;;4968168;28;20204;-66
2021/10/06 05:52:33;;;;;;;1.23;1.00;;;10.10;99.90;;;;;;4965733;28;20200;-70
2021/10/06 05:54:59;;;;;;;1.38;0.90;;;10.10;99.90;;;;;;4966089;28;20188;-68
2021/10/06 05:57:25;;;;;;;1.80;0.70;;;10.10;99.90;;;;;;4971687;28;20210;-67
2021/10/06 05:59:53;;;;;;;0.87;0.80;;;10.10;99.90;;;;;;4971762;28;20205;-69
2021/10/06 06:02:19;;;;;;;1.23;1.03;;;10.10;99.90;;;;;;4966836;28;20201;-68
2021/10/06 06:04:45;;;;;;;1.37;0.83;;;10.10;99.90;;;;;;4966221;28;20552;-68
2021/10/06 06:07:10;;;;;;;1.20;0.70;;;10.10;99.90;;;;;;4974824;28;20181;-69
2021/10/06 06:09:36;;;;;;;0.95;0.73;;;10.00;99.90;;;;;;4971233;28;20181;-66
2021/10/06 06:12:02;;;;;;;1.37;0.70;;;10.00;99.90;;;;;;4965518;28;20631;-68
2021/10/06 06:14:29;;;;;;;1.53;0.67;;;10.00;99.90;;;;;;4966525;28;20177;-67
2021/10/06 06:16:54;;;;;;;1.17;0.80;;;10.00;99.90;;;;;;4966100;28;20228;-67
2021/10/06 06:19:20;;;;;;;1.57;0.80;;;9.90;99.90;;;;;;4965115;28;20597;-68
2021/10/06 06:21:46;;;;;;;2.33;0.80;;;9.90;99.90;;;;;;4968606;28;20319;-68
2021/10/06 06:24:11;;;;;;;0.97;0.70;;;10.00;99.90;;;;;;4967969;28;20951;-68
2021/10/06 06:26:37;;;;;;;4.07;0.70;;;10.00;99.90;;;;;;4963754;28;20185;-69
2021/10/06 06:29:03;;;;;;;0.50;0.50;;;10.00;99.90;;;;;;4964524;28;20193;-65
2021/10/06 06:31:28;;;;;;;2.20;0.77;;;10.10;99.90;;;;;;4964891;28;20216;-69
2021/10/06 06:33:54;;;;;;;2.00;0.90;;;10.20;99.90;;;;;;4964592;28;20625;-68
2021/10/06 06:36:20;;;;;;;2.43;1.00;;;10.30;99.90;;;;;;4967471;28;20538;-67
2021/10/06 06:38:45;;;;;;;2.57;1.07;;;10.50;99.90;;;;;;4971092;28;20309;-66
2021/10/06 06:41:11;;;;;;;1.70;0.70;;;10.50;99.90;;;;;;4967603;28;20220;-67
2021/10/06 06:43:36;;;;;;;0.70;0.70;;;10.70;99.90;;;;;;4965009;28;20173;-67
2021/10/06 06:46:02;;;;;;;2.55;0.70;;;10.70;99.90;;;;;;4972853;28;20215;-66
2021/10/06 06:48:28;;;;;;;2.33;1.35;;;10.80;99.90;;;;;;4965337;28;20188;-68
2021/10/06 06:50:54;;;;;;;2.45;1.00;;;10.80;99.90;;;;;;4964820;28;20573;-67
2021/10/06 06:53:27;;;;;;;1.73;0.93;;;10.90;99.90;;;;;;4965161;28;20268;-68
2021/10/06 06:55:53;;;;;;;0.80;0.80;;;10.90;99.90;;;;;;4965351;28;20235;-71
2021/10/06 06:58:19;;;;;;;1.85;0.60;;;11.00;99.90;;;;;;4968889;28;20184;-68
2021/10/06 07:00:45;;;;;;;2.35;1.42;;;11.10;99.90;;;;;;4975658;28;20968;-69
2021/10/06 07:03:11;;;;;;;0.70;0.70;;;11.10;99.90;;;;;;4970410;28;20279;-69
2021/10/06 07:05:36;;;;;;;0.70;0.70;;;11.20;99.90;;;;;;4964777;28;20189;-67
2021/10/06 07:08:02;;;;;;;2.90;1.00;;;11.30;99.90;;;;;;4965348;28;20189;-66
2021/10/06 07:10:29;;;;;;;1.27;1.15;;;11.30;99.90;;;;;;4964809;28;20181;-68
2021/10/06 07:12:54;;;;;;;2.50;1.40;;;11.40;99.90;;;;;;4956687;28;20201;-66
2021/10/06 07:15:20;;;;;;;3.22;2.90;;;11.50;99.90;;;;;;4966105;28;20213;-69
2021/10/06 07:17:46;;;;;;;6.90;4.40;;;11.60;99.90;;;;;;4971121;28;20255;-69
2021/10/06 07:20:11;;;;;;;6.78;5.22;;;11.70;99.90;;;;;;4968330;28;20183;-68
2021/10/06 07:22:37;;;;;;;4.43;3.88;;;11.80;99.90;;;;;;4964507;28;20204;-68
2021/10/06 07:25:04;;;;;;;4.03;3.72;;;11.90;99.90;;;;;;4964837;28;20208;-68
2021/10/06 07:27:31;;;;;;;5.00;3.83;;;12.00;99.90;;;;;;4971959;28;20181;-68
2021/10/06 07:29:56;;;;;;;3.97;3.20;;;12.10;99.90;;;;;;4969245;28;20180;-70
2021/10/06 07:32:22;;;;;;;4.60;3.92;;;12.20;99.90;;;;;;4968937;28;20226;-67
2021/10/06 07:34:48;;;;;;;5.38;4.05;;;12.30;99.90;;;;;;4974939;28;20632;-69
2021/10/06 07:37:14;;;;;;;4.40;3.85;;;12.40;99.90;;;;;;4968649;28;20805;-69
2021/10/06 07:39:39;;;;;;;5.40;4.07;;;12.50;99.90;;;;;;4968525;28;20878;-68
2021/10/06 07:42:05;;;;;;;4.43;3.05;;;12.60;99.90;;;;;;4968144;28;20201;-67
2021/10/06 07:44:31;;;;;;;4.72;3.40;;;12.70;99.90;;;;;;4975893;28;20187;-68
2021/10/06 07:46:56;;;;;;;3.33;3.03;;;12.80;99.90;;;;;;4968367;28;20212;-65
2021/10/06 07:49:22;;;;;;;4.00;3.40;;;12.90;99.90;;;;;;4969742;28;20181;-69
2021/10/06 07:51:48;;;;;;;4.15;3.08;;;13.00;99.90;;;;;;4969378;28;20303;-68
2021/10/06 07:54:14;;;;;;;3.97;1.80;;;13.10;99.90;;;;;;4968728;28;20629;-68
2021/10/06 07:56:39;;;;;;;4.40;1.80;;;13.20;99.90;;;;;;4976146;28;21084;-69
2021/10/06 07:59:06;;;;;;;2.95;1.50;;;13.50;99.90;;;;;;4968724;28;20762;-68
2021/10/06 08:01:31;;;;;;;2.58;1.40;;;13.50;99.90;;;;;;4972847;28;20268;-66
2021/10/06 08:03:57;;;;;;;2.03;1.40;;;13.80;99.90;;;;;;4977764;28;20193;-66
2021/10/06 08:06:23;;;;;;;2.72;1.20;;;14.10;99.90;;;;;;4974161;28;20266;-70
2021/10/06 08:08:48;;;;;;;2.38;0.75;;;14.10;99.90;;;;;;4968470;28;20185;-69
2021/10/06 08:11:14;;;;;;;3.00;0.90;;;14.20;99.90;;;;;;4969067;28;20254;-66
2021/10/06 08:13:40;;;;;;;0.80;0.68;;;14.30;99.90;;;;;;4973860;28;20277;-67
2021/10/06 08:16:05;;;;;;;1.02;0.65;;;14.40;99.90;;;;;;4967682;28;20280;-67
2021/10/06 08:18:31;;;;;;;1.05;0.77;;;14.50;99.90;;;;;;4968190;28;20181;-68
2021/10/06 08:20:57;;;;;;;2.80;0.80;;;14.60;99.90;;;;;;4979869;28;20243;-67
2021/10/06 08:23:25;;;;;;;1.73;0.80;;;14.70;99.90;;;;;;4968086;28;20188;-67
2021/10/06 08:25:52;;;;;;;2.50;0.60;;;14.70;99.90;;;;;;4970732;28;20192;-69
2021/10/06 08:28:18;;;;;;;1.85;0.70;;;14.80;99.90;;;;;;4976654;28;20660;-67
2021/10/06 08:30:44;;;;;;;2.70;0.70;;;14.70;99.90;;;;;;4967333;28;20219;-69
2021/10/06 08:33:10;;;;;;;0.68;0.47;;;14.60;99.90;;;;;;4971383;28;20196;-68
2021/10/06 08:35:39;;;;;;;1.35;0.70;;;14.70;99.90;;;;;;4968920;28;20259;-67
2021/10/06 08:38:06;;;;;;;1.00;0.65;;;14.70;99.90;;;;;;4978410;28;20185;-67
2021/10/06 08:40:34;;;;;;;1.27;0.60;;;14.80;99.90;;;;;;4966788;28;20765;-67
2021/10/06 08:43:02;;;;;;;2.15;0.75;;;14.80;99.90;;;;;;4966193;28;20941;-67
2021/10/06 08:45:28;;;;;;;3.22;0.75;;;14.90;99.90;;;;;;4967127;28;20296;-68
2021/10/06 08:47:53;;;;;;;0.95;0.60;;;14.90;99.90;;;;;;4979397;28;20376;-67
2021/10/06 08:50:19;;;;;;;0.60;0.50;;;14.90;99.90;;;;;;4972350;28;20192;-65
2021/10/06 08:52:47;;;;;;;1.42;0.60;;;14.90;99.90;;;;;;4966943;28;20212;-68
2021/10/06 08:55:14;;;;;;;1.80;0.63;;;15.10;99.90;;;;;;4967524;28;20185;-70
2021/10/06 08:57:41;;;;;;;1.92;0.80;;;15.00;99.90;;;;;;4977195;28;20526;-66
2021/10/06 09:00:08;;;;;;;1.50;0.50;;;15.00;99.90;;;;;;4969635;28;20192;-69
2021/10/06 09:02:41;;;;;;;2.05;0.80;;;15.00;99.90;;;;;;4966719;28;20208;-67
2021/10/06 09:05:09;;;;;;;1.40;0.50;;;15.00;99.90;;;;;;4967421;28;20196;-69
2021/10/06 09:08:17;;;;;;;1.35;0.50;;;14.90;99.90;;;;;;4967222;28;20512;-69
2021/10/06 09:10:45;;;;;;;3.50;0.65;;;15.00;99.90;;;;;;4925166;29;20194;-69
2021/10/06 09:13:11;;;;;;;0.95;0.52;;;15.10;99.90;;;;;;4930976;29;20195;-68
2021/10/06 09:15:45;;;;;;;1.70;0.60;;;15.00;99.90;;;;;;4949093;28;20219;-67
2021/10/06 09:18:17;;;;;;;1.05;0.50;;;14.90;99.90;;;;;;4971762;28;20180;-66
2021/10/06 09:20:43;;;;;;;3.05;0.47;;;15.00;99.90;;;;;;4971498;28;20649;-69
2021/10/06 09:23:12;;;;;;;1.30;0.73;;;15.10;99.90;;;;;;4974754;28;20219;-71
2021/10/06 09:25:55;;;;;;;1.95;0.85;;;15.20;99.90;;;;;;4980959;28;20188;-69
2021/10/06 09:28:28;;;;;;;3.05;0.70;;;15.30;99.90;;;;;;4970887;28;20250;-71
2021/10/06 09:31:25;;;;;;;1.67;0.73;;;15.20;99.90;;;;;;4974502;28;20224;-68
2021/10/06 09:33:52;;;;;;;1.67;0.50;;;15.00;99.90;;;;;;4971474;28;20247;-67
2021/10/06 09:36:30;;;;;;;0.60;0.50;;;14.90;99.90;;;;;;4970744;28;20211;-68
2021/10/06 09:39:00;;;;;;;0.77;0.50;;;15.00;99.90;;;;;;4982411;28;20184;-70
2021/10/06 09:41:36;;;;;;;1.80;0.50;;;14.90;99.90;;;;;;4969874;28;20551;-69
2021/10/06 09:44:16;;;;;;;1.45;0.70;;;14.80;99.90;;;;;;4967937;28;20238;-68
2021/10/06 09:46:47;;;;;;;2.22;0.70;;;14.80;99.90;;;;;;4971224;28;20685;-70
2021/10/06 09:49:29;;;;;;;0.60;0.50;;;14.80;99.90;;;;;;4966312;28;20663;-69
2021/10/06 09:52:19;;;;;;;1.27;0.40;;;14.90;99.90;;;;;;4964983;28;20216;-71
2021/10/06 09:54:50;;;;;;;0.60;0.50;;;15.10;99.90;;;;;;4966373;28;20608;-67
2021/10/06 09:57:37;;;;;;;0.75;0.50;;;15.10;99.90;;;;;;4966281;28;20213;-68
2021/10/06 10:00:07;;;;;;;2.03;0.60;;;15.20;99.90;;;;;;4967800;28;20235;-70
2021/10/06 10:02:35;;;;;;;1.75;0.40;;;15.40;99.90;;;;;;4972448;28;20244;-70
2021/10/06 10:05:01;;;;;;;1.25;0.50;;;15.40;99.90;;;;;;4970345;28;20240;-69
2021/10/06 10:07:27;;;;;;;1.25;0.70;;;15.70;99.90;;;;;;4964793;28;20180;-67
2021/10/06 10:09:53;;;;;;;1.70;0.50;;;15.90;99.90;;;;;;4973095;28;20180;-69
2021/10/06 10:12:21;;;;;;;1.08;0.60;;;16.10;99.90;;;;;;4966296;28;20200;-68
2021/10/06 10:14:48;;;;;;;1.20;0.45;;;16.10;99.90;;;;;;4968010;28;20173;-70
2021/10/06 10:17:15;;;;;;;0.73;0.60;;;16.30;99.90;;;;;;4972866;28;20219;-68
2021/10/06 10:19:43;;;;;;;1.80;0.65;;;16.60;99.90;;;;;;4965624;28;20582;-69
2021/10/06 10:22:09;;;;;;;2.10;0.60;;;17.10;99.90;;;;;;4968792;28;20277;-69
2021/10/06 10:24:46;;;;;;;0.57;0.50;;;17.40;99.90;;;;;;4965947;28;20179;-69
2021/10/06 10:27:15;;;;;;;1.95;0.47;;;17.50;99.90;;;;;;4966161;28;20187;-70
2021/10/06 10:29:50;;;;;;;2.15;0.60;;;17.50;99.90;;;;;;4974462;28;20181;-70
2021/10/06 10:32:23;;;;;;;1.33;0.40;;;17.20;99.90;;;;;;4966305;28;20235;-70
2021/10/06 10:35:11;;;;;;;0.70;0.40;;;17.00;99.90;;;;;;4965205;28;20275;-66
2021/10/06 10:37:47;;;;;;;1.27;0.70;;;16.70;99.90;;;;;;4975061;28;20216;-71
2021/10/06 10:40:33;;;;;;;0.88;0.50;;;16.50;99.90;;;;;;4967386;28;20183;-67
2021/10/06 10:42:58;;;;;;;0.85;0.60;;;16.40;99.90;;;;;;4964522;28;20185;-68
2021/10/06 10:45:40;;;;;;;1.00;0.50;;;16.20;99.90;;;;;;4965506;28;20196;-71
2021/10/06 10:48:14;;;;;;;0.50;0.30;;;16.20;99.90;;;;;;4977445;28;20658;-70
2021/10/06 10:50:43;;;;;;;1.60;0.50;;;16.00;99.90;;;;;;4964803;28;20271;-70
2021/10/06 10:53:13;;;;;;;1.45;0.63;;;15.90;99.90;;;;;;4972712;28;20184;-70
2021/10/06 10:55:52;;;;;;;1.63;0.40;;;16.00;99.90;;;;;;4964847;28;20755;-69
2021/10/06 10:58:33;;;;;;;1.25;0.45;;;16.30;99.90;;;;;;4965329;28;20288;-67
2021/10/06 11:01:01;;;;;;;1.52;0.65;;;16.60;99.90;;;;;;4969653;28;20211;-70
2021/10/06 11:03:28;;;;;;;0.85;0.40;;;17.00;99.90;;;;;;4968739;28;20276;-69
2021/10/06 11:05:56;;;;;;;1.38;0.57;;;17.20;99.90;;;;;;4966090;28;20267;-69
2021/10/06 11:08:30;;;;;;;1.85;0.68;;;17.60;99.90;;;;;;4968617;28;20172;-68
2021/10/06 11:11:12;;;;;;;1.23;0.43;;;17.70;99.90;;;;;;4962830;28;20200;-72
2021/10/06 11:13:46;;;;;;;1.02;0.93;;;17.80;99.90;;;;;;4964265;28;20695;-70
2021/10/06 11:16:12;;;;;;;1.30;0.50;;;17.80;99.90;;;;;;4965428;28;20303;-68
2021/10/06 11:18:56;;;;;;;0.80;0.40;;;17.50;99.90;;;;;;4968703;28;20213;-70
2021/10/06 11:21:41;;;;;;;0.95;0.50;;;17.30;99.90;;;;;;4975924;28;20204;-69
2021/10/06 11:24:19;;;;;;;1.58;0.60;;;17.30;99.90;;;;;;4966504;28;20208;-69
2021/10/06 11:26:45;;;;;;;0.82;0.50;;;17.20;99.90;;;;;;4964992;28;20246;-68
2021/10/06 11:29:11;;;;;;;1.25;0.52;;;17.10;99.90;;;;;;4969483;28;20543;-68
2021/10/06 11:31:38;;;;;;;1.08;0.60;;;17.00;99.90;;;;;;4963792;28;20231;-68
2021/10/06 11:34:06;;;;;;;0.40;0.30;;;17.10;99.90;;;;;;4965269;28;20243;-67
2021/10/06 11:36:34;;;;;;;1.27;0.40;;;17.10;99.90;;;;;;4964306;28;20216;-71
2021/10/06 11:39:11;;;;;;;1.13;0.40;;;17.50;99.90;;;;;;4967714;28;20188;-71
2021/10/06 11:41:45;;;;;;;1.00;0.50;;;17.80;99.90;;;;;;4967390;28;20208;-67
2021/10/06 11:44:26;;;;;;;2.63;0.70;;;17.80;99.90;;;;;;4965067;28;20505;-68
2021/10/06 11:46:57;;;;;;;1.20;0.50;;;17.90;99.90;;;;;;4964384;28;20221;-70
2021/10/06 11:49:30;;;;;;;2.65;0.40;;;17.80;99.90;;;;;;4965890;28;20664;-69
2021/10/06 11:51:57;;;;;;;1.10;0.52;;;17.90;99.90;;;;;;4974789;28;20242;-67
2021/10/06 11:54:24;;;;;;;2.35;0.52;;;17.80;99.90;;;;;;4967973;28;20177;-68
2021/10/06 11:56:55;;;;;;;2.17;0.50;;;17.90;99.90;;;;;;4974120;28;20243;-67
2021/10/06 11:59:26;;;;;;;0.95;0.40;;;18.00;99.90;;;;;;4967889;28;20173;-69
2021/10/06 12:02:01;;;;;;;2.00;0.65;;;18.20;99.90;;;;;;4964641;28;20586;-69
2021/10/06 12:04:32;;;;;;;5.20;0.43;;;18.20;99.90;;;;;;4965003;28;20176;-67
2021/10/06 12:07:01;;;;;;;2.35;0.60;;;17.90;99.90;;;;;;4968818;28;20538;-70
2021/10/06 12:09:35;;;;;;;0.50;0.40;;;17.60;99.90;;;;;;4976478;28;20198;-71
2021/10/06 12:12:06;;;;;;;1.33;0.40;;;17.20;99.90;;;;;;4972455;28;20201;-71
2021/10/06 12:14:33;;;;;;;2.28;0.60;;;17.00;99.90;;;;;;4979310;28;20188;-72
2021/10/06 12:17:08;;;;;;;1.40;0.43;;;17.20;99.90;;;;;;4971219;28;20236;-68
2021/10/06 12:19:35;;;;;;;1.67;0.50;;;17.20;99.90;;;;;;4969352;28;20185;-69
2021/10/06 12:22:02;;;;;;;2.05;0.85;;;17.10;99.90;;;;;;4967035;28;20489;-67
2021/10/06 12:24:29;;;;;;;1.00;0.40;;;17.10;99.90;;;;;;4967854;28;20601;-69
2021/10/06 12:26:56;;;;;;;1.35;0.52;;;17.10;99.90;;;;;;4967798;28;20656;-70
2021/10/06 12:29:27;;;;;;;1.08;0.52;;;17.20;99.90;;;;;;4967892;28;20581;-68
2021/10/06 12:32:11;;;;;;;0.80;0.32;;;17.10;99.90;;;;;;4966849;28;20372;-67
2021/10/06 12:34:37;;;;;;;0.93;0.40;;;17.00;99.90;;;;;;4968026;28;20259;-67
2021/10/06 12:37:04;;;;;;;1.73;0.50;;;17.00;99.90;;;;;;4967502;28;20276;-68
2021/10/06 12:39:30;;;;;;;1.05;0.50;;;16.90;99.90;;;;;;4972514;28;20224;-68
2021/10/06 12:42:00;;;;;;;1.35;0.70;;;17.00;99.90;;;;;;4966799;28;20680;-66
2021/10/06 12:44:34;;;;;;;1.55;0.50;;;17.10;99.90;;;;;;4967489;28;20231;-68
2021/10/06 12:47:01;;;;;;;1.48;0.52;;;17.10;99.90;;;;;;4967318;28;20500;-70
2021/10/06 12:49:29;;;;;;;0.40;0.40;;;17.00;99.90;;;;;;4967759;28;20204;-70
2021/10/06 12:51:57;;;;;;;1.40;0.60;;;17.00;99.90;;;;;;4970906;28;20266;-69